createdAt,value
2023-04-24T00:00:00.910Z,8.38
2023-04-24T00:02:04.602Z,8.68
2023-04-24T00:04:12.162Z,8.57
2023-04-24T00:06:18.044Z,8.55
2023-04-24T00:08:21.404Z,8.43
2023-04-24T00:10:24.950Z,8.80
2023-04-24T00:12:28.722Z,8.85
2023-04-24T00:14:33.616Z,8.10
2023-04-24T00:16:37.026Z,8.85
2023-04-24T00:18:40.848Z,8.38
2023-04-24T00:20:44.751Z,7.70
2023-04-24T00:22:48.516Z,7.88
2023-04-24T00:24:51.826Z,7.47
2023-04-24T00:26:55.220Z,7.80
2023-04-24T00:28:58.689Z,8.10
2023-04-24T00:31:05.288Z,7.28
2023-04-24T00:33:08.653Z,7.63
2023-04-24T00:35:12.576Z,7.78
2023-04-24T00:37:16.241Z,7.75
2023-04-24T00:39:21.735Z,7.90
2023-04-24T00:41:26.646Z,7.47
2023-04-24T00:43:30.138Z,7.82
2023-04-24T00:45:33.817Z,7.95
2023-04-24T00:47:39.526Z,8.10
2023-04-24T00:49:43.177Z,8.27
2023-04-24T00:51:47.369Z,8.55
2023-04-24T00:53:50.792Z,8.32
2023-04-24T00:55:54.489Z,7.90
2023-04-24T00:57:59.189Z,8.50
2023-04-24T01:00:04.260Z,9.30
2023-04-24T01:02:08.544Z,9.60
2023-04-24T01:04:14.365Z,9.25
2023-04-24T01:06:18.899Z,8.77
2023-04-24T01:08:25.565Z,8.60
2023-04-24T01:10:31.743Z,8.63
2023-04-24T01:12:35.147Z,8.38
2023-04-24T01:14:39.392Z,8.48
2023-04-24T01:16:43.062Z,8.10
2023-04-24T01:18:46.979Z,7.90
2023-04-24T01:20:53.266Z,7.80
2023-04-24T01:22:58.728Z,6.63
2023-04-24T01:25:02.395Z,6.75
2023-04-24T01:27:07.452Z,6.78
2023-04-24T01:29:11.502Z,6.50
2023-04-24T01:31:15.041Z,5.78
2023-04-24T01:33:18.757Z,5.80
2023-04-24T01:35:22.790Z,5.93
2023-04-24T01:37:27.888Z,5.65
2023-04-24T01:39:32.793Z,5.30
2023-04-24T01:41:36.418Z,5.25
2023-04-24T01:43:40.507Z,5.88
2023-04-24T01:45:43.983Z,5.32
2023-04-24T01:47:47.821Z,5.60
2023-04-24T01:49:52.454Z,4.93
2023-04-24T01:51:55.811Z,4.70
2023-04-24T01:53:59.412Z,4.60
2023-04-24T01:56:04.941Z,4.18
2023-04-24T01:58:08.400Z,4.13
2023-04-24T02:00:13.438Z,3.92
2023-04-24T02:02:17.242Z,3.58
2023-04-24T02:04:20.848Z,3.60
2023-04-24T02:06:24.899Z,3.20
2023-04-24T02:08:29.978Z,3.20
2023-04-24T02:10:33.367Z,2.80
2023-04-24T02:12:38.255Z,2.92
2023-04-24T02:14:41.658Z,2.92
2023-04-24T02:16:47.438Z,2.40
2023-04-24T02:18:51.074Z,2.78
2023-04-24T02:20:54.828Z,2.35
2023-04-24T02:22:58.620Z,2.30
2023-04-24T02:25:02.225Z,2.42
2023-04-24T02:27:06.997Z,2.42
2023-04-24T02:29:11.892Z,2.22
2023-04-24T02:31:15.478Z,2.30
2023-04-24T02:33:19.073Z,2.20
2023-04-24T02:35:22.580Z,2.35
2023-04-24T02:37:26.155Z,2.40
2023-04-24T02:39:29.645Z,2.30
2023-04-24T02:41:33.848Z,2.10
2023-04-24T02:43:37.304Z,2.20
2023-04-24T02:45:42.489Z,2.15
2023-04-24T02:47:46.397Z,2.30
2023-04-24T02:49:49.788Z,2.13
2023-04-24T02:51:53.235Z,2.17
2023-04-24T02:53:56.658Z,2.20
2023-04-24T02:56:00.323Z,2.20
2023-04-24T02:58:03.751Z,2.28
2023-04-24T03:00:10.013Z,2.28
2023-04-24T03:02:14.846Z,2.55
2023-04-24T03:04:21.510Z,2.70
2023-04-24T03:06:25.583Z,2.50
2023-04-24T03:08:29.167Z,2.72
2023-04-24T03:10:33.259Z,2.58
2023-04-24T03:12:36.709Z,2.70
2023-04-24T03:14:40.048Z,2.60
2023-04-24T03:16:43.521Z,2.90
2023-04-24T03:18:48.467Z,2.80
2023-04-24T03:20:52.341Z,2.60
2023-04-24T03:22:55.931Z,2.53
2023-04-24T03:24:59.308Z,2.83
2023-04-24T03:27:02.919Z,2.65
2023-04-24T03:29:24.781Z,2.35
2023-04-24T03:31:28.536Z,2.80
2023-04-24T03:33:32.174Z,2.85
2023-04-24T03:35:40.258Z,2.38
2023-04-24T03:37:46.749Z,2.50
2023-04-24T03:40:11.516Z,2.42
2023-04-24T03:42:16.093Z,2.47
2023-04-24T03:44:27.400Z,2.70
2023-04-24T03:46:30.919Z,2.47
2023-04-24T03:48:36.873Z,2.75
2023-04-24T03:50:41.675Z,2.30
2023-04-24T03:52:47.753Z,2.50
2023-04-24T03:55:06.719Z,2.20
2023-04-24T03:57:14.572Z,2.60
2023-04-24T03:59:27.728Z,2.08
2023-04-24T04:01:51.415Z,2.20
2023-04-24T04:03:55.085Z,2.20
2023-04-24T04:06:02.803Z,2.30
2023-04-24T04:08:06.685Z,2.30
2023-04-24T04:10:10.886Z,2.38
2023-04-24T04:12:14.958Z,2.35
2023-04-24T04:14:18.440Z,2.00
2023-04-24T04:16:25.555Z,2.10
2023-04-24T04:18:35.114Z,2.20
2023-04-24T04:20:40.201Z,2.08
2023-04-24T04:22:47.058Z,2.00
2023-04-24T04:24:55.880Z,2.22
2023-04-24T04:27:04.132Z,2.03
2023-04-24T04:29:13.810Z,2.03
2023-04-24T04:31:20.800Z,2.20
2023-04-24T04:33:26.797Z,2.00
2023-04-24T04:35:30.318Z,2.20
2023-04-24T04:37:34.325Z,1.77
2023-04-24T04:40:12.909Z,1.83
2023-04-24T04:42:25.670Z,2.00
2023-04-24T04:44:30.518Z,2.00
2023-04-24T04:46:38.220Z,1.52
2023-04-24T04:48:53.586Z,1.70
2023-04-24T04:51:00.133Z,1.50
2023-04-24T04:53:04.896Z,1.80
2023-04-24T04:55:14.608Z,1.38
2023-04-24T04:57:42.695Z,1.77
2023-04-24T04:59:46.632Z,1.45
2023-04-24T05:01:57.610Z,1.70
2023-04-24T05:04:04.832Z,1.33
2023-04-24T05:06:09.467Z,1.50
2023-04-24T05:10:24.304Z,1.50
2023-04-24T05:12:33.431Z,1.85
2023-04-24T05:14:38.777Z,1.50
2023-04-24T05:16:42.798Z,1.70
2023-04-24T05:18:47.487Z,1.45
2023-04-24T05:20:54.764Z,1.48
2023-04-24T05:22:58.514Z,1.60
2023-04-24T05:25:03.974Z,1.45
2023-04-24T05:27:08.896Z,1.73
2023-04-24T05:29:16.397Z,1.60
2023-04-24T05:31:20.062Z,1.40
2023-04-24T05:33:23.467Z,1.40
2023-04-24T05:35:27.191Z,1.20
2023-04-24T05:37:31.407Z,1.20
2023-04-24T05:39:34.919Z,1.42
2023-04-24T05:41:38.314Z,1.10
2023-04-24T05:43:43.186Z,1.23
2023-04-24T05:45:46.866Z,1.30
2023-04-24T05:47:54.593Z,1.15
2023-04-24T05:49:59.909Z,1.08
2023-04-24T05:52:05.198Z,1.30
2023-04-24T05:54:08.858Z,1.23
2023-04-24T05:56:12.574Z,1.33
2023-04-24T05:58:16.790Z,2.05
2023-04-24T06:00:22.872Z,1.30
2023-04-24T06:02:35.618Z,1.35
2023-04-24T06:04:39.314Z,1.40
2023-04-24T06:06:43.010Z,1.40
2023-04-24T06:08:46.658Z,1.42
2023-04-24T06:10:50.811Z,1.30
2023-04-24T06:12:57.370Z,1.40
2023-04-24T06:15:01.424Z,1.30
2023-04-24T06:17:38.781Z,1.42
2023-04-24T06:19:42.878Z,1.52
2023-04-24T06:21:46.626Z,1.45
2023-04-24T06:23:50.769Z,1.58
2023-04-24T06:25:54.290Z,1.48
2023-04-24T06:27:58.238Z,1.38
2023-04-24T06:30:01.734Z,1.42
2023-04-24T06:32:05.362Z,1.60
2023-04-24T06:34:10.973Z,1.40
2023-04-24T06:36:14.562Z,1.55
2023-04-24T06:38:18.189Z,1.45
2023-04-24T06:40:21.587Z,1.45
2023-04-24T06:42:25.866Z,1.73
2023-04-24T06:44:29.270Z,1.60
2023-04-24T06:46:32.767Z,1.45
2023-04-24T06:48:36.238Z,1.80
2023-04-24T06:50:41.165Z,1.70
2023-04-24T06:52:45.244Z,1.90
2023-04-24T06:54:48.683Z,1.58
2023-04-24T06:56:53.194Z,1.40
2023-04-24T06:58:56.652Z,1.50
2023-04-24T07:01:00.053Z,1.70
2023-04-24T07:03:03.688Z,1.80
2023-04-24T07:05:07.983Z,1.80
2023-04-24T07:07:15.333Z,1.77
2023-04-24T07:09:19.638Z,2.10
2023-04-24T07:11:23.347Z,1.75
2023-04-24T07:13:27.273Z,1.77
2023-04-24T07:15:30.724Z,1.90
2023-04-24T07:17:34.218Z,2.40
2023-04-24T07:19:37.802Z,2.33
2023-04-24T07:21:41.300Z,2.47
2023-04-24T07:23:46.243Z,2.28
2023-04-24T07:25:49.829Z,2.97
2023-04-24T07:27:53.438Z,2.28
2023-04-24T07:29:56.890Z,2.55
2023-04-24T07:32:02.015Z,2.50
2023-04-24T07:34:06.913Z,2.78
2023-04-24T07:36:16.389Z,2.70
2023-04-24T07:38:22.669Z,2.65
2023-04-24T07:40:27.575Z,2.80
2023-04-24T07:42:32.243Z,2.95
2023-04-24T07:44:35.631Z,2.95
2023-04-24T07:46:39.120Z,2.78
2023-04-24T07:48:42.596Z,2.85
2023-04-24T07:50:46.318Z,2.60
2023-04-24T07:52:49.845Z,3.20
2023-04-24T07:54:59.321Z,3.30
2023-04-24T07:57:04.181Z,2.85
2023-04-24T07:59:07.621Z,2.95
2023-04-24T08:01:11.581Z,3.50
2023-04-24T08:03:19.422Z,3.30
2023-04-24T08:05:23.261Z,3.05
2023-04-24T08:07:26.784Z,3.45
2023-04-24T08:09:30.240Z,3.55
2023-04-24T08:11:34.098Z,3.35
2023-04-24T08:13:38.936Z,3.20
2023-04-24T08:15:42.469Z,3.10
2023-04-24T08:17:46.294Z,3.85
2023-04-24T08:19:49.890Z,3.70
2023-04-24T08:21:53.279Z,3.28
2023-04-24T08:23:56.714Z,3.70
2023-04-24T08:26:00.309Z,3.55
2023-04-24T08:28:05.136Z,3.22
2023-04-24T08:30:11.054Z,3.20
2023-04-24T08:32:14.497Z,3.75
2023-04-24T08:34:17.984Z,3.80
2023-04-24T08:36:21.433Z,3.58
2023-04-24T08:38:25.032Z,4.20
2023-04-24T08:40:31.223Z,3.80
2023-04-24T08:42:36.804Z,4.22
2023-04-24T08:44:40.420Z,4.30
2023-04-24T08:46:46.781Z,4.45
2023-04-24T08:48:51.287Z,3.92
2023-04-24T08:50:55.330Z,4.15
2023-04-24T08:52:59.582Z,3.88
2023-04-24T08:55:03.807Z,4.40
2023-04-24T08:57:10.566Z,4.60
2023-04-24T08:59:14.508Z,4.75
2023-04-24T09:01:18.039Z,4.60
2023-04-24T09:03:24.024Z,4.60
2023-04-24T09:05:29.309Z,4.63
2023-04-24T09:07:37.852Z,4.80
2023-04-24T09:09:41.571Z,4.93
2023-04-24T09:11:45.402Z,5.40
2023-04-24T09:13:50.463Z,5.22
2023-04-24T09:15:55.205Z,5.35
2023-04-24T09:17:58.776Z,5.00
2023-04-24T09:20:03.772Z,5.60
2023-04-24T09:22:08.527Z,5.07
2023-04-24T09:24:18.855Z,5.28
2023-04-24T09:26:24.760Z,5.10
2023-04-24T09:28:29.371Z,5.22
2023-04-24T09:30:32.829Z,5.65
2023-04-24T09:32:36.506Z,5.47
2023-04-24T09:34:39.895Z,6.20
2023-04-24T09:36:45.640Z,4.90
2023-04-24T09:38:49.026Z,5.18
2023-04-24T09:40:52.664Z,4.80
2023-04-24T09:42:57.812Z,5.55
2023-04-24T09:45:11.949Z,5.00
2023-04-24T09:47:18.962Z,4.68
2023-04-24T09:49:26.099Z,4.70
2023-04-24T09:51:38.549Z,5.05
2023-04-24T09:53:48.286Z,4.88
2023-04-24T09:56:03.991Z,5.35
2023-04-24T09:58:07.438Z,4.97
2023-04-24T10:00:12.215Z,6.47
2023-04-24T10:02:20.823Z,6.28
2023-04-24T10:04:25.664Z,6.63
2023-04-24T10:06:33.737Z,5.50
2023-04-24T10:08:39.038Z,5.80
2023-04-24T10:10:45.246Z,6.40
2023-04-24T10:12:49.161Z,7.78
2023-04-24T10:14:53.425Z,7.25
2023-04-24T10:16:57.660Z,8.20
2023-04-24T10:19:03.101Z,6.90
2023-04-24T10:21:08.493Z,7.03
2023-04-24T10:23:13.090Z,7.57
2023-04-24T10:25:17.414Z,6.93
2023-04-24T10:27:23.889Z,7.15
2023-04-24T10:29:28.258Z,7.18
2023-04-24T10:31:34.459Z,8.05
2023-04-24T10:33:38.290Z,7.50
2023-04-24T10:35:44.327Z,8.65
2023-04-24T10:37:50.898Z,8.02
2023-04-24T10:39:55.776Z,8.50
2023-04-24T10:41:59.573Z,8.55
2023-04-24T10:44:11.897Z,8.40
2023-04-24T10:46:23.172Z,8.30
2023-04-24T10:48:29.622Z,8.07
2023-04-24T10:50:45.512Z,8.05
2023-04-24T10:52:52.326Z,7.15
2023-04-24T10:54:59.020Z,8.20
2023-04-24T10:57:33.828Z,8.32
2023-04-24T10:59:38.849Z,9.05
2023-04-24T11:01:42.172Z,8.50
2023-04-24T11:03:53.638Z,8.85
2023-04-24T11:06:02.192Z,8.95
2023-04-24T11:08:17.160Z,8.98
2023-04-24T11:10:28.066Z,8.73
2023-04-24T11:12:31.727Z,8.75
2023-04-24T11:15:12.376Z,8.98
2023-04-24T11:17:31.151Z,8.95
2023-04-24T11:19:37.738Z,9.02
2023-04-24T11:21:43.576Z,9.70
2023-04-24T11:23:47.742Z,8.80
2023-04-24T11:26:12.479Z,8.82
2023-04-24T11:28:18.419Z,8.20
2023-04-24T11:30:23.169Z,8.43
2023-04-24T11:32:28.908Z,8.68
2023-04-24T11:34:34.309Z,8.18
2023-04-24T11:36:38.126Z,8.40
2023-04-24T11:38:42.324Z,8.63
2023-04-24T11:40:46.837Z,8.60
2023-04-24T11:42:51.170Z,8.32
2023-04-24T11:44:56.637Z,7.85
2023-04-24T11:47:01.474Z,8.70
2023-04-24T11:49:04.899Z,8.63
2023-04-24T11:51:08.353Z,8.48
2023-04-24T11:53:11.688Z,7.97
2023-04-24T11:55:27.891Z,8.07
2023-04-24T11:57:34.832Z,8.38
2023-04-24T11:59:39.124Z,7.85
2023-04-24T12:01:46.650Z,7.60
2023-04-24T12:03:53.389Z,7.40
2023-04-24T12:06:08.965Z,6.70
2023-04-24T12:08:12.539Z,6.45
2023-04-24T12:10:15.881Z,6.40
2023-04-24T12:12:20.381Z,5.85
2023-04-24T12:14:23.780Z,5.90
2023-04-24T12:16:29.252Z,5.93
2023-04-24T12:18:32.901Z,6.30
2023-04-24T12:20:37.942Z,6.03
2023-04-24T12:22:48.351Z,6.20
2023-04-24T12:25:03.103Z,6.53
2023-04-24T12:27:06.876Z,5.90
2023-04-24T12:29:10.559Z,6.07
2023-04-24T12:31:14.143Z,6.05
2023-04-24T12:33:19.989Z,6.70
2023-04-24T12:35:24.657Z,6.55
2023-04-24T12:37:36.138Z,6.97
2023-04-24T12:42:02.346Z,6.38
2023-04-24T12:44:06.389Z,6.57
2023-04-24T12:46:09.862Z,7.05
2023-04-24T12:48:13.424Z,7.53
2023-04-24T12:50:17.925Z,6.97
2023-04-24T12:52:22.719Z,7.57
2023-04-24T12:54:27.518Z,6.50
2023-04-24T12:56:31.741Z,5.93
2023-04-24T12:58:35.170Z,6.32
2023-04-24T13:00:38.888Z,6.30
2023-04-24T13:02:42.511Z,6.10
2023-04-24T13:04:47.353Z,6.03
2023-04-24T13:06:51.280Z,5.60
2023-04-24T13:08:55.931Z,5.80
2023-04-24T13:11:00.719Z,6.25
2023-04-24T13:13:04.576Z,6.07
2023-04-24T13:15:09.352Z,5.60
2023-04-24T13:17:13.511Z,5.47
2023-04-24T13:19:17.483Z,5.30
2023-04-24T13:21:21.418Z,5.05
2023-04-24T13:23:25.085Z,5.28
2023-04-24T13:25:29.191Z,4.82
2023-04-24T13:27:34.010Z,4.70
2023-04-24T13:29:37.404Z,5.00
2023-04-24T13:31:40.864Z,4.60
2023-04-24T13:33:44.404Z,5.20
2023-04-24T13:35:48.085Z,4.68
2023-04-24T13:37:51.497Z,4.82
2023-04-24T13:39:54.934Z,5.10
2023-04-24T13:41:59.200Z,5.13
2023-04-24T13:44:04.151Z,5.28
2023-04-24T13:46:07.769Z,5.60
2023-04-24T13:48:11.497Z,5.65
2023-04-24T13:50:14.945Z,5.47
2023-04-24T13:52:18.363Z,5.30
2023-04-24T13:54:21.716Z,5.43
2023-04-24T13:56:25.285Z,5.57
2023-04-24T13:58:29.445Z,5.40
2023-04-24T14:00:34.386Z,5.30
2023-04-24T14:02:37.937Z,5.68
2023-04-24T14:04:41.763Z,4.82
2023-04-24T14:06:45.842Z,5.13
2023-04-24T14:08:49.655Z,5.20
2023-04-24T14:10:53.017Z,4.90
2023-04-24T14:12:56.838Z,4.57
2023-04-24T14:15:03.986Z,4.60
2023-04-24T14:17:08.864Z,4.82
2023-04-24T14:19:12.239Z,5.03
2023-04-24T14:21:15.621Z,5.70
2023-04-24T14:23:19.041Z,6.93
2023-04-24T14:25:23.721Z,6.57
2023-04-24T14:27:27.292Z,7.93
2023-04-24T14:29:30.747Z,8.43
2023-04-24T14:31:34.215Z,9.18
2023-04-24T14:33:39.005Z,9.07
2023-04-24T14:35:43.884Z,10.10
2023-04-24T14:37:47.273Z,10.13
2023-04-24T14:40:05.592Z,10.57
2023-04-24T14:42:14.761Z,10.90
2023-04-24T14:44:18.266Z,10.98
2023-04-24T14:46:22.444Z,11.40
2023-04-24T14:48:25.914Z,12.63
2023-04-24T14:50:30.752Z,13.25
2023-04-24T14:52:34.100Z,13.13
2023-04-24T14:54:37.622Z,12.50
2023-04-24T14:56:42.014Z,12.07
2023-04-24T14:58:45.471Z,12.02
2023-04-24T15:00:51.042Z,11.82
2023-04-24T15:02:54.631Z,11.75
2023-04-24T15:04:58.492Z,10.93
2023-04-24T15:07:03.362Z,10.52
2023-04-24T15:09:06.899Z,9.75
2023-04-24T15:11:10.571Z,9.88
2023-04-24T15:13:13.996Z,8.70
2023-04-24T15:15:17.579Z,7.85
2023-04-24T15:17:21.010Z,5.75
2023-04-24T15:19:24.396Z,4.90
2023-04-24T15:21:27.779Z,4.70
2023-04-24T15:23:32.539Z,4.18
2023-04-24T15:25:35.864Z,4.43
2023-04-24T15:27:43.268Z,3.67
2023-04-24T15:29:46.695Z,3.78
2023-04-24T15:31:50.248Z,3.50
2023-04-24T15:33:53.783Z,3.30
2023-04-24T15:35:57.155Z,3.08
2023-04-24T15:38:00.883Z,3.78
2023-04-24T15:40:08.677Z,3.92
2023-04-24T15:42:12.414Z,4.28
2023-04-24T15:44:16.038Z,5.15
2023-04-24T15:46:19.659Z,7.68
2023-04-24T15:48:23.172Z,7.93
2023-04-24T15:50:27.965Z,8.85
2023-04-24T15:52:58.849Z,9.30
2023-04-24T15:55:02.714Z,9.60
2023-04-24T15:57:07.524Z,10.63
2023-04-24T15:59:10.956Z,10.55
2023-04-24T16:01:14.358Z,11.55
2023-04-24T16:03:17.961Z,10.70
2023-04-24T16:05:23.145Z,11.48
2023-04-24T16:07:26.533Z,10.90
2023-04-24T16:09:30.317Z,12.00
2023-04-24T16:11:33.857Z,11.40
2023-04-24T16:13:38.707Z,7.90
2023-04-24T16:15:42.296Z,8.13
2023-04-24T16:17:45.944Z,7.47
2023-04-24T16:19:49.282Z,6.60
2023-04-24T16:21:54.344Z,6.72
2023-04-24T16:23:57.669Z,6.40
2023-04-24T16:26:01.107Z,5.90
2023-04-24T16:28:04.640Z,6.40
2023-04-24T16:30:10.828Z,6.20
2023-04-24T16:32:14.211Z,5.72
2023-04-24T16:34:17.608Z,5.18
2023-04-24T16:36:22.071Z,4.82
2023-04-24T16:38:26.664Z,4.55
2023-04-24T16:40:30.393Z,5.13
2023-04-24T16:42:33.949Z,5.28
2023-04-24T16:44:39.359Z,5.25
2023-04-24T16:46:44.207Z,5.40
2023-04-24T16:48:47.904Z,5.78
2023-04-24T16:50:51.471Z,5.32
2023-04-24T16:52:54.772Z,5.22
2023-04-24T16:54:58.212Z,5.22
2023-04-24T16:57:01.564Z,6.15
2023-04-24T16:59:04.928Z,5.70
2023-04-24T17:01:08.367Z,5.60
2023-04-24T17:03:13.441Z,6.65
2023-04-24T17:05:17.231Z,6.53
2023-04-24T17:07:20.656Z,6.18
2023-04-24T17:09:23.965Z,6.65
2023-04-24T17:11:28.803Z,6.28
2023-04-24T17:13:33.325Z,6.88
2023-04-24T17:15:36.726Z,6.47
2023-04-24T17:17:42.634Z,6.75
2023-04-24T17:19:47.345Z,6.32
2023-04-24T17:21:50.726Z,6.80
2023-04-24T17:23:54.119Z,6.88
2023-04-24T17:25:57.487Z,6.35
2023-04-24T17:28:00.970Z,6.95
2023-04-24T17:30:04.558Z,7.30
2023-04-24T17:32:08.007Z,6.60
2023-04-24T17:34:11.485Z,7.45
2023-04-24T17:36:16.362Z,7.30
2023-04-24T17:38:20.268Z,7.63
2023-04-24T17:40:23.680Z,7.25
2023-04-24T17:42:27.092Z,7.55
2023-04-24T17:44:30.429Z,8.13
2023-04-24T17:46:33.864Z,7.95
2023-04-24T17:48:37.437Z,7.47
2023-04-24T17:50:40.831Z,7.68
2023-04-24T17:52:45.588Z,8.70
2023-04-24T17:54:49.758Z,7.93
2023-04-24T17:56:54.018Z,7.80
2023-04-24T17:58:58.363Z,8.07
2023-04-24T18:01:01.794Z,8.95
2023-04-24T18:03:05.774Z,8.20
2023-04-24T18:05:09.250Z,7.80
2023-04-24T18:07:12.628Z,7.55
2023-04-24T18:09:18.988Z,8.02
2023-04-24T18:11:22.484Z,7.18
2023-04-24T18:13:25.845Z,6.90
2023-04-24T18:15:29.200Z,7.15
2023-04-24T18:17:32.599Z,7.55
2023-04-24T18:19:35.971Z,6.68
2023-04-24T18:21:39.314Z,7.22
2023-04-24T18:23:42.953Z,6.90
2023-04-24T18:25:47.771Z,6.65
2023-04-24T18:27:51.160Z,6.30
2023-04-24T18:29:54.520Z,5.25
2023-04-24T18:31:58.434Z,5.03
2023-04-24T18:34:02.058Z,5.38
2023-04-24T18:36:05.638Z,4.82
2023-04-24T18:38:09.480Z,4.97
2023-04-24T18:40:13.701Z,4.80
2023-04-24T18:42:18.567Z,4.38
2023-04-24T18:44:21.922Z,4.38
2023-04-24T18:46:25.404Z,4.93
2023-04-24T18:48:31.226Z,4.30
2023-04-24T18:50:34.770Z,3.90
2023-04-24T18:52:38.177Z,3.97
2023-04-24T18:54:41.714Z,3.88
2023-04-24T18:56:45.102Z,3.70
2023-04-24T18:58:50.490Z,3.65
2023-04-24T19:00:54.428Z,4.97
2023-04-24T19:02:57.955Z,3.60
2023-04-24T19:05:01.385Z,3.42
2023-04-24T19:07:05.468Z,3.13
2023-04-24T19:09:09.019Z,3.40
2023-04-24T19:11:12.823Z,2.90
2023-04-24T19:13:16.257Z,2.90
2023-04-24T19:15:21.040Z,2.80
2023-04-24T19:17:25.544Z,2.97
2023-04-24T19:19:31.416Z,2.70
2023-04-24T19:21:35.070Z,3.22
2023-04-24T19:23:40.963Z,19.58
2023-04-24T19:25:44.608Z,3.03
2023-04-24T19:27:47.973Z,2.40
2023-04-24T19:29:52.162Z,3.30
2023-04-24T19:31:58.781Z,3.03
2023-04-24T19:34:02.180Z,3.20
2023-04-24T19:36:06.016Z,2.88
2023-04-24T19:38:09.405Z,2.70
2023-04-24T19:40:13.885Z,2.85
2023-04-24T19:42:19.444Z,2.97
2023-04-24T19:44:26.664Z,3.10
2023-04-24T19:46:30.259Z,3.40
2023-04-24T19:48:35.027Z,3.20
2023-04-24T19:50:38.841Z,3.25
2023-04-24T19:52:42.388Z,3.35
2023-04-24T19:54:45.781Z,3.70
2023-04-24T19:56:49.229Z,3.47
2023-04-24T19:58:52.590Z,3.90
2023-04-24T20:00:55.971Z,4.43
2023-04-24T20:02:59.523Z,4.05
2023-04-24T20:05:04.569Z,3.95
2023-04-24T20:07:08.439Z,3.88
2023-04-24T20:09:11.840Z,3.70
2023-04-24T20:11:15.735Z,3.70
2023-04-24T20:13:19.173Z,4.07
2023-04-24T20:15:22.585Z,3.80
2023-04-24T20:17:26.281Z,3.90
2023-04-24T20:19:30.118Z,4.13
2023-04-24T20:21:34.997Z,4.15
2023-04-24T20:23:38.420Z,4.20
2023-04-24T20:25:41.776Z,4.45
2023-04-24T20:27:45.184Z,4.30
2023-04-24T20:29:48.600Z,4.72
2023-04-24T20:31:52.159Z,4.40
2023-04-24T20:33:55.695Z,4.78
2023-04-24T20:35:59.174Z,4.50
2023-04-24T20:38:03.926Z,5.07
2023-04-24T20:40:09.915Z,4.28
2023-04-24T20:42:13.857Z,4.95
2023-04-24T20:44:17.362Z,4.93
2023-04-24T20:46:20.876Z,5.10
2023-04-24T20:48:26.040Z,4.32
2023-04-24T20:50:30.686Z,4.57
2023-04-24T20:52:34.169Z,4.68
2023-04-24T20:54:38.964Z,4.47
2023-04-24T20:56:42.361Z,5.05
2023-04-24T20:58:46.794Z,4.50
2023-04-24T21:00:50.504Z,4.28
2023-04-24T21:02:54.123Z,4.65
2023-04-24T21:04:57.674Z,4.20
2023-04-24T21:07:01.174Z,4.28
2023-04-24T21:09:04.839Z,4.10
2023-04-24T21:11:09.623Z,4.22
2023-04-24T21:13:12.987Z,4.20
2023-04-24T21:15:16.547Z,4.10
2023-04-24T21:17:20.109Z,4.38
2023-04-24T21:19:23.550Z,3.78
2023-04-24T21:21:27.079Z,3.88
2023-04-24T21:23:30.470Z,3.78
2023-04-24T21:25:34.102Z,3.85
2023-04-24T21:27:39.595Z,3.80
2023-04-24T21:29:43.180Z,3.92
2023-04-24T21:31:46.631Z,3.95
2023-04-24T21:33:50.628Z,3.72
2023-04-24T21:35:54.231Z,4.18
2023-04-24T21:37:57.561Z,3.78
2023-04-24T21:40:01.069Z,4.22
2023-04-24T21:42:07.146Z,3.95
2023-04-24T21:44:12.010Z,4.05
2023-04-24T21:46:15.430Z,4.15
2023-04-24T21:48:18.801Z,4.00
2023-04-24T21:50:22.405Z,4.20
2023-04-24T21:52:25.877Z,4.20
2023-04-24T21:54:29.362Z,4.53
2023-04-24T21:56:32.771Z,4.22
2023-04-24T21:58:36.525Z,4.28
2023-04-24T22:00:42.539Z,4.40
2023-04-24T22:02:46.426Z,4.68
2023-04-24T22:04:50.551Z,4.57
2023-04-24T22:06:54.455Z,4.47
2023-04-24T22:08:58.121Z,4.63
2023-04-24T22:11:01.550Z,4.25
2023-04-24T22:13:05.142Z,4.85
2023-04-24T22:15:09.676Z,5.55
2023-04-24T22:17:15.303Z,4.50
2023-04-24T22:19:18.833Z,5.20
2023-04-24T22:21:22.912Z,5.05
2023-04-24T22:23:26.776Z,4.75
2023-04-24T22:25:30.270Z,4.90
2023-04-24T22:27:35.546Z,5.05
2023-04-24T22:29:39.437Z,5.20
2023-04-24T22:31:43.046Z,5.85
2023-04-24T22:33:48.206Z,4.95
2023-04-24T22:35:51.844Z,5.05
2023-04-24T22:37:56.013Z,5.13
2023-04-24T22:40:00.029Z,5.32
2023-04-24T22:42:03.950Z,5.32
2023-04-24T22:44:07.492Z,6.13
2023-04-24T22:46:10.984Z,5.82
2023-04-24T22:48:14.438Z,5.97
2023-04-24T22:50:20.419Z,6.40
2023-04-24T22:52:23.769Z,5.80
2023-04-24T22:54:29.060Z,5.90
2023-04-24T22:56:34.667Z,6.03
2023-04-24T22:58:38.085Z,5.75
2023-04-24T23:00:41.528Z,6.40
2023-04-24T23:02:45.086Z,5.95
2023-04-24T23:04:48.573Z,6.10
2023-04-24T23:06:55.321Z,5.72
2023-04-24T23:08:58.719Z,5.82
2023-04-24T23:11:02.147Z,5.78
2023-04-24T23:13:05.732Z,6.30
2023-04-24T23:15:11.141Z,6.00
2023-04-24T23:17:14.555Z,5.30
2023-04-24T23:19:17.954Z,5.47
2023-04-24T23:21:21.585Z,5.63
2023-04-24T23:23:26.402Z,5.10
2023-04-24T23:25:30.606Z,5.63
2023-04-24T23:27:33.935Z,5.20
2023-04-24T23:29:37.303Z,5.10
2023-04-24T23:31:40.994Z,5.30
2023-04-24T23:33:44.484Z,5.63
2023-04-24T23:35:47.913Z,5.45
2023-04-24T23:37:51.390Z,5.55
2023-04-24T23:39:56.286Z,5.30
2023-04-24T23:41:59.871Z,5.05
2023-04-24T23:44:03.293Z,5.40
2023-04-24T23:46:07.413Z,5.07
2023-04-24T23:48:10.800Z,5.38
2023-04-24T23:50:14.219Z,4.90
2023-04-24T23:52:17.656Z,5.40
2023-04-24T23:54:21.300Z,5.45
2023-04-24T23:56:26.851Z,5.60
2023-04-24T23:58:31.186Z,6.15
